createdAt,value
2023-02-18T00:03:35.608Z,9.10
2023-02-18T00:08:38.607Z,9.16
2023-02-18T00:13:43.287Z,9.09
2023-02-18T00:18:46.229Z,9.16
2023-02-18T00:23:49.131Z,9.25
2023-02-18T00:28:54.377Z,9.19
2023-02-18T00:33:58.760Z,9.22
2023-02-18T00:39:08.271Z,9.20
2023-02-18T00:44:13.888Z,9.22
2023-02-18T00:49:17.799Z,9.33
2023-02-18T00:54:20.703Z,9.22
2023-02-18T00:59:24.981Z,9.33
2023-02-18T01:04:27.934Z,9.27
2023-02-18T01:09:31.362Z,9.14
2023-02-18T01:14:35.595Z,9.18
2023-02-18T01:19:38.484Z,9.07
2023-02-18T01:24:41.879Z,9.12
2023-02-18T01:29:46.212Z,9.18
2023-02-18T01:34:49.153Z,9.14
2023-02-18T01:39:52.039Z,8.96
2023-02-18T01:45:16.423Z,8.93
2023-02-18T01:50:19.472Z,8.86
2023-02-18T01:55:24.822Z,8.71
2023-02-18T02:00:29.383Z,8.73
2023-02-18T02:05:34.354Z,8.61
2023-02-18T02:10:48.861Z,8.63
2023-02-18T02:15:59.982Z,8.55
2023-02-18T02:21:40.512Z,8.58
2023-02-18T02:27:16.230Z,8.52
2023-02-18T02:32:58.633Z,8.64
2023-02-18T02:38:07.577Z,8.74
2023-02-18T02:43:19.305Z,8.63
2023-02-18T02:48:29.647Z,8.53
2023-02-18T02:53:36.557Z,8.42
2023-02-18T02:58:39.461Z,8.50
2023-02-18T03:04:20.666Z,8.46
2023-02-18T03:09:41.107Z,8.47
2023-02-18T03:14:54.634Z,8.39
2023-02-18T03:20:04.247Z,8.42
2023-02-18T03:25:12.284Z,8.44
2023-02-18T03:30:21.123Z,8.49
2023-02-18T03:35:25.286Z,8.38
2023-02-18T03:40:30.546Z,8.41
2023-02-18T03:45:34.605Z,8.44
2023-02-18T03:50:37.629Z,8.34
2023-02-18T03:55:42.645Z,8.31
2023-02-18T04:00:45.623Z,8.26
2023-02-18T04:05:48.891Z,8.30
2023-02-18T04:10:53.176Z,8.33
2023-02-18T04:15:56.262Z,8.39
2023-02-18T04:20:59.187Z,8.41
2023-02-18T04:26:03.466Z,8.37
2023-02-18T04:31:06.465Z,8.37
2023-02-18T04:36:10.576Z,8.40
2023-02-18T04:41:14.927Z,8.29
2023-02-18T04:46:17.905Z,8.39
2023-02-18T04:51:21.304Z,8.38
2023-02-18T04:56:25.597Z,8.29
2023-02-18T05:01:28.595Z,8.31
2023-02-18T05:06:31.630Z,8.26
2023-02-18T05:11:35.902Z,8.26
2023-02-18T05:16:38.791Z,8.39
2023-02-18T05:21:41.799Z,8.31
2023-02-18T05:26:46.554Z,8.38
2023-02-18T05:31:49.561Z,8.33
2023-02-18T05:36:53.153Z,8.17
2023-02-18T05:41:57.392Z,8.25
2023-02-18T05:47:01.723Z,8.31
2023-02-18T05:52:05.274Z,8.23
2023-02-18T05:57:09.509Z,8.26
2023-02-18T06:02:12.504Z,8.31
2023-02-18T06:07:15.396Z,8.36
2023-02-18T06:12:19.657Z,8.46
2023-02-18T06:17:22.747Z,8.44
2023-02-18T06:22:25.800Z,8.32
2023-02-18T06:27:30.090Z,7.98
2023-02-18T06:32:32.998Z,8.18
2023-02-18T06:37:35.894Z,8.06
2023-02-18T06:42:40.287Z,8.08
2023-02-18T06:47:43.246Z,8.05
2023-02-18T06:52:46.143Z,8.20
2023-02-18T06:57:50.457Z,8.34
2023-02-18T07:02:53.342Z,8.30
2023-02-18T07:07:57.297Z,8.12
2023-02-18T07:13:01.612Z,8.06
2023-02-18T07:18:04.767Z,7.94
2023-02-18T07:23:07.787Z,8.12
2023-02-18T07:28:12.047Z,8.25
2023-02-18T07:33:15.143Z,8.26
2023-02-18T07:38:18.069Z,8.26
2023-02-18T07:43:22.765Z,8.21
2023-02-18T07:48:25.684Z,8.18
2023-02-18T07:53:28.591Z,8.41
2023-02-18T07:58:35.549Z,8.50
2023-02-18T08:03:39.011Z,8.29
2023-02-18T08:08:41.873Z,8.62
2023-02-18T08:13:47.217Z,8.79
2023-02-18T08:18:50.724Z,8.90
2023-02-18T08:23:54.529Z,8.65
2023-02-18T08:28:58.816Z,8.77
2023-02-18T08:34:03.616Z,8.44
2023-02-18T08:39:06.561Z,8.54
2023-02-18T08:44:10.864Z,8.66
2023-02-18T08:49:13.823Z,9.02
2023-02-18T08:54:16.781Z,8.99
2023-02-18T08:59:21.086Z,9.18
2023-02-18T09:04:24.056Z,9.48
2023-02-18T09:09:26.978Z,9.80
2023-02-18T09:14:31.334Z,10.10
2023-02-18T09:19:34.240Z,10.32
2023-02-18T09:24:39.126Z,10.28
2023-02-18T09:29:44.352Z,10.45
2023-02-18T09:34:47.335Z,10.57
2023-02-18T09:39:50.442Z,10.77
2023-02-18T09:44:59.001Z,10.88
2023-02-18T09:50:07.837Z,10.91
2023-02-18T09:55:20.795Z,10.86
2023-02-18T10:00:31.810Z,10.97
2023-02-18T10:05:37.325Z,10.89
2023-02-18T10:10:43.214Z,10.81
2023-02-18T10:15:48.404Z,10.76
2023-02-18T10:20:53.376Z,10.81
2023-02-18T10:25:57.731Z,10.88
2023-02-18T10:31:08.518Z,11.02
2023-02-18T10:36:25.243Z,10.90
2023-02-18T10:41:39.127Z,10.92
2023-02-18T10:46:51.894Z,10.90
2023-02-18T10:51:58.989Z,10.94
2023-02-18T10:57:04.736Z,11.08
2023-02-18T11:02:18.623Z,11.24
2023-02-18T11:07:25.174Z,11.31
2023-02-18T11:12:31.424Z,11.63
2023-02-18T11:17:37.879Z,11.72
2023-02-18T11:22:41.557Z,11.70
2023-02-18T11:27:47.904Z,12.06
2023-02-18T11:32:56.818Z,11.99
2023-02-18T11:38:01.580Z,12.03
2023-02-18T11:43:07.421Z,12.02
2023-02-18T11:48:18.627Z,11.98
2023-02-18T11:53:29.550Z,11.92
2023-02-18T11:58:39.730Z,11.74
2023-02-18T12:03:49.472Z,11.64
2023-02-18T12:08:55.882Z,11.53
2023-02-18T12:14:00.020Z,11.42
2023-02-18T12:19:28.626Z,11.44
2023-02-18T12:24:53.894Z,11.40
2023-02-18T12:30:19.616Z,11.55
2023-02-18T12:35:42.101Z,11.78
2023-02-18T12:41:01.727Z,11.56
2023-02-18T12:46:28.826Z,11.29
2023-02-18T12:51:45.631Z,11.13
2023-02-18T12:57:10.399Z,10.83
2023-02-18T13:02:35.985Z,10.82
2023-02-18T13:08:12.197Z,10.81
2023-02-18T13:13:19.596Z,10.89
2023-02-18T13:18:27.709Z,10.97
2023-02-18T13:23:36.847Z,11.08
2023-02-18T13:28:45.094Z,11.16
2023-02-18T13:33:55.101Z,10.91
2023-02-18T13:39:08.397Z,10.81
2023-02-18T13:44:40.996Z,10.56
2023-02-18T13:49:44.019Z,10.61
2023-02-18T13:54:51.759Z,10.57
2023-02-18T13:59:59.784Z,10.43
2023-02-18T14:05:21.430Z,10.41
2023-02-18T14:10:35.751Z,10.36
2023-02-18T14:16:02.110Z,10.42
2023-02-18T14:21:19.304Z,10.39
2023-02-18T14:26:31.191Z,10.22
2023-02-18T14:31:55.412Z,10.21
2023-02-18T14:37:11.648Z,10.17
2023-02-18T14:42:25.810Z,10.21
2023-02-18T14:47:38.228Z,10.09
2023-02-18T14:52:46.561Z,10.05
2023-02-18T14:57:55.224Z,10.01
2023-02-18T15:02:58.180Z,10.05
2023-02-18T15:08:04.033Z,9.88
2023-02-18T15:13:15.004Z,9.83
2023-02-18T15:18:24.189Z,9.83
2023-02-18T15:23:27.136Z,9.91
2023-02-18T15:28:34.355Z,9.87
2023-02-18T15:33:37.387Z,9.98
2023-02-18T15:38:42.938Z,10.01
2023-02-18T15:43:55.912Z,10.24
2023-02-18T15:48:59.592Z,10.24
2023-02-18T15:54:05.806Z,10.28
2023-02-18T15:59:17.128Z,10.28
2023-02-18T16:04:22.032Z,10.31
2023-02-18T16:09:27.380Z,10.24
2023-02-18T16:14:36.101Z,10.25
2023-02-18T16:20:02.811Z,10.29
2023-02-18T16:25:17.549Z,10.25
2023-02-18T16:30:24.317Z,10.30
2023-02-18T16:35:32.691Z,10.27
2023-02-18T16:40:41.444Z,10.28
2023-02-18T16:45:49.868Z,10.18
2023-02-18T16:50:53.560Z,10.22
2023-02-18T16:55:56.983Z,10.24
2023-02-18T17:01:01.940Z,10.23
2023-02-18T17:06:05.379Z,10.22
2023-02-18T17:11:16.357Z,10.20
2023-02-18T17:16:21.227Z,10.15
2023-02-18T17:21:26.413Z,10.10
2023-02-18T17:26:30.777Z,10.00
2023-02-18T17:31:37.641Z,9.88
2023-02-18T17:36:45.313Z,9.81
2023-02-18T17:41:48.598Z,9.79
2023-02-18T17:46:54.872Z,9.74
2023-02-18T17:51:58.190Z,9.82
2023-02-18T17:57:01.231Z,9.79
2023-02-18T18:02:11.756Z,9.85
2023-02-18T18:07:14.942Z,9.87
2023-02-18T18:12:18.334Z,9.89
2023-02-18T18:17:22.660Z,10.00
2023-02-18T18:22:25.607Z,10.03
2023-02-18T18:27:28.584Z,10.00
2023-02-18T18:32:32.998Z,9.91
2023-02-18T18:37:36.001Z,9.80
2023-02-18T18:42:39.951Z,9.60
2023-02-18T18:47:44.545Z,9.69
2023-02-18T18:52:48.971Z,9.71
2023-02-18T18:57:51.968Z,9.78
2023-02-18T19:02:56.648Z,9.86
2023-02-18T19:08:00.121Z,9.81
2023-02-18T19:13:03.927Z,9.82
2023-02-18T19:18:08.979Z,9.78
2023-02-18T19:23:13.235Z,9.76
2023-02-18T19:28:16.291Z,9.70
2023-02-18T19:33:20.613Z,9.72
2023-02-18T19:38:23.564Z,9.68
2023-02-18T19:43:26.461Z,9.63
2023-02-18T19:48:30.781Z,9.60
2023-02-18T19:53:33.856Z,9.50
2023-02-18T19:58:37.403Z,9.53
2023-02-18T20:03:41.725Z,9.46
2023-02-18T20:08:44.709Z,9.49
2023-02-18T20:13:49.313Z,9.36
2023-02-18T20:18:53.990Z,9.45
2023-02-18T20:23:56.926Z,9.42
2023-02-18T20:29:00.117Z,9.41
2023-02-18T20:34:04.405Z,9.35
2023-02-18T20:39:15.644Z,9.35
2023-02-18T20:44:20.937Z,9.36
2023-02-18T20:49:25.373Z,9.42
2023-02-18T20:54:29.346Z,9.40
2023-02-18T20:59:33.388Z,9.30
2023-02-18T21:04:37.792Z,9.33
2023-02-18T21:09:40.954Z,9.28
2023-02-18T21:14:44.034Z,9.22
2023-02-18T21:19:48.335Z,9.21
2023-02-18T21:24:51.797Z,9.31
2023-02-18T21:29:55.047Z,9.31
2023-02-18T21:34:59.322Z,9.34
2023-02-18T21:40:02.254Z,9.37
2023-02-18T21:45:05.603Z,9.32
2023-02-18T21:50:10.810Z,9.31
2023-02-18T21:55:14.103Z,9.43
2023-02-18T22:00:20.964Z,9.34
2023-02-18T22:05:26.124Z,9.35
2023-02-18T22:10:29.061Z,9.27
2023-02-18T22:15:31.975Z,9.34
2023-02-18T22:20:36.231Z,9.38
2023-02-18T22:25:39.125Z,9.35
2023-02-18T22:30:42.111Z,9.28
2023-02-18T22:35:46.431Z,9.32
2023-02-18T22:40:50.926Z,9.27
2023-02-18T22:45:53.873Z,9.20
2023-02-18T22:50:58.186Z,9.20
2023-02-18T22:56:02.453Z,9.28
2023-02-18T23:01:07.016Z,9.26
2023-02-18T23:06:12.492Z,9.29
2023-02-18T23:11:18.864Z,9.34
2023-02-18T23:16:22.608Z,9.29
2023-02-18T23:21:26.859Z,9.30
2023-02-18T23:26:29.768Z,9.33
2023-02-18T23:31:37.705Z,9.32
2023-02-18T23:36:42.941Z,9.32
2023-02-18T23:41:46.662Z,9.32
2023-02-18T23:46:49.786Z,9.32
2023-02-18T23:51:55.688Z,9.31
2023-02-18T23:56:58.538Z,9.31
